sensor_id;sensor_type;location;lat;lon;timestamp;P1;durP1;ratioP1;P2;durP2;ratioP2
24650;SDS011;12783;48.824;8.662;2022-11-15T00:00:53;5.20;;;2.03;;
24650;SDS011;12783;48.824;8.662;2022-11-15T00:03:21;3.38;;;2.20;;
24650;SDS011;12783;48.824;8.662;2022-11-15T00:05:50;3.72;;;2.42;;
24650;SDS011;12783;48.824;8.662;2022-11-15T00:08:17;4.68;;;1.90;;
24650;SDS011;12783;48.824;8.662;2022-11-15T00:10:54;4.78;;;2.38;;
24650;SDS011;12783;48.824;8.662;2022-11-15T00:13:21;3.42;;;2.10;;
24650;SDS011;12783;48.824;8.662;2022-11-15T00:15:48;5.30;;;2.22;;
24650;SDS011;12783;48.824;8.662;2022-11-15T00:18:15;3.85;;;2.00;;
24650;SDS011;12783;48.824;8.662;2022-11-15T00:20:42;4.07;;;1.65;;
24650;SDS011;12783;48.824;8.662;2022-11-15T00:23:09;3.00;;;2.00;;
24650;SDS011;12783;48.824;8.662;2022-11-15T00:25:35;3.97;;;1.75;;
24650;SDS011;12783;48.824;8.662;2022-11-15T00:28:02;3.42;;;2.10;;
24650;SDS011;12783;48.824;8.662;2022-11-15T00:30:29;2.75;;;2.00;;
24650;SDS011;12783;48.824;8.662;2022-11-15T00:32:56;4.88;;;2.03;;
24650;SDS011;12783;48.824;8.662;2022-11-15T00:35:23;2.72;;;1.77;;
24650;SDS011;12783;48.824;8.662;2022-11-15T00:37:49;2.20;;;1.80;;
24650;SDS011;12783;48.824;8.662;2022-11-15T00:40:16;10.30;;;2.00;;
24650;SDS011;12783;48.824;8.662;2022-11-15T00:42:43;6.00;;;2.00;;
24650;SDS011;12783;48.824;8.662;2022-11-15T00:45:09;4.53;;;2.15;;
24650;SDS011;12783;48.824;8.662;2022-11-15T00:47:36;4.00;;;1.77;;
24650;SDS011;12783;48.824;8.662;2022-11-15T00:50:03;2.85;;;1.98;;
24650;SDS011;12783;48.824;8.662;2022-11-15T00:52:30;7.45;;;2.00;;
24650;SDS011;12783;48.824;8.662;2022-11-15T00:54:57;5.43;;;1.85;;
24650;SDS011;12783;48.824;8.662;2022-11-15T00:57:24;3.42;;;2.08;;
24650;SDS011;12783;48.824;8.662;2022-11-15T00:59:50;3.42;;;2.20;;
24650;SDS011;12783;48.824;8.662;2022-11-15T01:02:17;5.75;;;2.08;;
24650;SDS011;12783;48.824;8.662;2022-11-15T01:04:44;2.60;;;1.98;;
24650;SDS011;12783;48.824;8.662;2022-11-15T01:07:10;3.72;;;1.80;;
24650;SDS011;12783;48.824;8.662;2022-11-15T01:09:37;3.60;;;1.70;;
24650;SDS011;12783;48.824;8.662;2022-11-15T01:12:04;3.95;;;2.22;;
24650;SDS011;12783;48.824;8.662;2022-11-15T01:14:31;4.13;;;1.70;;
24650;SDS011;12783;48.824;8.662;2022-11-15T01:16:58;4.65;;;1.73;;
24650;SDS011;12783;48.824;8.662;2022-11-15T01:19:24;3.70;;;1.75;;
24650;SDS011;12783;48.824;8.662;2022-11-15T01:21:51;4.03;;;2.00;;
24650;SDS011;12783;48.824;8.662;2022-11-15T01:24:18;5.65;;;1.70;;
24650;SDS011;12783;48.824;8.662;2022-11-15T01:26:45;4.00;;;1.88;;
24650;SDS011;12783;48.824;8.662;2022-11-15T01:29:11;4.28;;;1.85;;
24650;SDS011;12783;48.824;8.662;2022-11-15T01:31:38;3.88;;;1.77;;
24650;SDS011;12783;48.824;8.662;2022-11-15T01:34:05;3.25;;;1.80;;
24650;SDS011;12783;48.824;8.662;2022-11-15T01:36:32;2.90;;;1.63;;
24650;SDS011;12783;48.824;8.662;2022-11-15T01:38:59;2.45;;;1.80;;
24650;SDS011;12783;48.824;8.662;2022-11-15T01:41:27;5.43;;;1.70;;
24650;SDS011;12783;48.824;8.662;2022-11-15T01:43:57;3.30;;;1.65;;
24650;SDS011;12783;48.824;8.662;2022-11-15T01:46:45;5.30;;;1.90;;
24650;SDS011;12783;48.824;8.662;2022-11-15T01:49:17;2.78;;;1.70;;
24650;SDS011;12783;48.824;8.662;2022-11-15T01:51:46;4.05;;;1.77;;
24650;SDS011;12783;48.824;8.662;2022-11-15T01:54:14;1.85;;;1.60;;
24650;SDS011;12783;48.824;8.662;2022-11-15T01:56:43;3.83;;;1.90;;
24650;SDS011;12783;48.824;8.662;2022-11-15T01:59:13;4.80;;;1.73;;
24650;SDS011;12783;48.824;8.662;2022-11-15T02:01:41;3.33;;;1.70;;
24650;SDS011;12783;48.824;8.662;2022-11-15T02:04:12;1.67;;;1.48;;
24650;SDS011;12783;48.824;8.662;2022-11-15T02:06:43;3.83;;;1.73;;
24650;SDS011;12783;48.824;8.662;2022-11-15T02:09:10;7.10;;;1.95;;
24650;SDS011;12783;48.824;8.662;2022-11-15T02:11:37;2.97;;;1.73;;
24650;SDS011;12783;48.824;8.662;2022-11-15T02:14:04;2.05;;;1.70;;
24650;SDS011;12783;48.824;8.662;2022-11-15T02:16:35;2.97;;;1.67;;
24650;SDS011;12783;48.824;8.662;2022-11-15T02:32:24;5.45;;;2.00;;
24650;SDS011;12783;48.824;8.662;2022-11-15T02:35:03;1.90;;;1.55;;
24650;SDS011;12783;48.824;8.662;2022-11-15T02:37:58;2.85;;;1.65;;
24650;SDS011;12783;48.824;8.662;2022-11-15T02:40:45;2.08;;;1.58;;
24650;SDS011;12783;48.824;8.662;2022-11-15T02:43:16;3.33;;;1.63;;
24650;SDS011;12783;48.824;8.662;2022-11-15T02:46:06;2.60;;;1.40;;
24650;SDS011;12783;48.824;8.662;2022-11-15T02:48:44;2.58;;;1.60;;
24650;SDS011;12783;48.824;8.662;2022-11-15T02:51:11;1.95;;;1.75;;
24650;SDS011;12783;48.824;8.662;2022-11-15T02:53:38;3.72;;;1.73;;
24650;SDS011;12783;48.824;8.662;2022-11-15T02:56:07;3.65;;;1.60;;
24650;SDS011;12783;48.824;8.662;2022-11-15T02:58:46;5.20;;;1.90;;
24650;SDS011;12783;48.824;8.662;2022-11-15T03:06:42;3.78;;;1.67;;
24650;SDS011;12783;48.824;8.662;2022-11-15T03:12:27;2.70;;;1.85;;
24650;SDS011;12783;48.824;8.662;2022-11-15T03:17:28;2.50;;;1.80;;
24650;SDS011;12783;48.824;8.662;2022-11-15T03:19:57;4.03;;;2.13;;
24650;SDS011;12783;48.824;8.662;2022-11-15T03:22:26;4.28;;;1.85;;
24650;SDS011;12783;48.824;8.662;2022-11-15T03:24:59;2.72;;;1.83;;
24650;SDS011;12783;48.824;8.662;2022-11-15T03:27:30;4.47;;;1.90;;
24650;SDS011;12783;48.824;8.662;2022-11-15T03:30:02;3.90;;;1.70;;
24650;SDS011;12783;48.824;8.662;2022-11-15T03:32:31;2.65;;;1.73;;
24650;SDS011;12783;48.824;8.662;2022-11-15T03:35:14;2.13;;;1.65;;
24650;SDS011;12783;48.824;8.662;2022-11-15T03:38:00;4.82;;;1.88;;
24650;SDS011;12783;48.824;8.662;2022-11-15T03:40:39;4.47;;;2.00;;
24650;SDS011;12783;48.824;8.662;2022-11-15T03:46:16;2.10;;;1.58;;
24650;SDS011;12783;48.824;8.662;2022-11-15T03:48:47;2.28;;;1.60;;
24650;SDS011;12783;48.824;8.662;2022-11-15T03:51:16;4.25;;;1.85;;
24650;SDS011;12783;48.824;8.662;2022-11-15T03:53:43;2.90;;;1.90;;
24650;SDS011;12783;48.824;8.662;2022-11-15T03:56:10;4.85;;;2.00;;
24650;SDS011;12783;48.824;8.662;2022-11-15T03:58:37;2.50;;;1.80;;
24650;SDS011;12783;48.824;8.662;2022-11-15T04:01:04;3.65;;;1.77;;
24650;SDS011;12783;48.824;8.662;2022-11-15T04:03:30;3.08;;;1.83;;
24650;SDS011;12783;48.824;8.662;2022-11-15T04:05:58;2.88;;;1.50;;
24650;SDS011;12783;48.824;8.662;2022-11-15T04:08:24;5.57;;;1.95;;
24650;SDS011;12783;48.824;8.662;2022-11-15T04:10:51;4.95;;;1.92;;
24650;SDS011;12783;48.824;8.662;2022-11-15T04:13:18;2.35;;;1.83;;
24650;SDS011;12783;48.824;8.662;2022-11-15T04:15:44;3.33;;;1.90;;
24650;SDS011;12783;48.824;8.662;2022-11-15T04:18:11;3.53;;;1.60;;
24650;SDS011;12783;48.824;8.662;2022-11-15T04:20:38;5.47;;;1.83;;
24650;SDS011;12783;48.824;8.662;2022-11-15T04:26:12;2.90;;;1.77;;
24650;SDS011;12783;48.824;8.662;2022-11-15T04:28:41;6.05;;;1.90;;
24650;SDS011;12783;48.824;8.662;2022-11-15T04:31:27;5.63;;;1.85;;
24650;SDS011;12783;48.824;8.662;2022-11-15T04:33:54;3.63;;;1.70;;
24650;SDS011;12783;48.824;8.662;2022-11-15T04:36:21;3.40;;;1.80;;
24650;SDS011;12783;48.824;8.662;2022-11-15T04:39:06;4.95;;;2.15;;
24650;SDS011;12783;48.824;8.662;2022-11-15T04:41:33;3.75;;;2.00;;
24650;SDS011;12783;48.824;8.662;2022-11-15T04:44:00;3.22;;;1.65;;
24650;SDS011;12783;48.824;8.662;2022-11-15T04:46:27;2.78;;;1.83;;
24650;SDS011;12783;48.824;8.662;2022-11-15T04:48:53;3.15;;;1.83;;
24650;SDS011;12783;48.824;8.662;2022-11-15T04:51:24;2.20;;;1.70;;
24650;SDS011;12783;48.824;8.662;2022-11-15T04:53:51;3.63;;;1.60;;
24650;SDS011;12783;48.824;8.662;2022-11-15T04:56:18;3.30;;;1.67;;
24650;SDS011;12783;48.824;8.662;2022-11-15T04:58:45;2.92;;;1.60;;
24650;SDS011;12783;48.824;8.662;2022-11-15T05:01:14;6.32;;;1.90;;
24650;SDS011;12783;48.824;8.662;2022-11-15T05:03:41;4.50;;;1.80;;
24650;SDS011;12783;48.824;8.662;2022-11-15T05:06:27;3.10;;;1.75;;
24650;SDS011;12783;48.824;8.662;2022-11-15T05:08:54;3.63;;;1.63;;
24650;SDS011;12783;48.824;8.662;2022-11-15T05:11:21;1.50;;;1.40;;
24650;SDS011;12783;48.824;8.662;2022-11-15T05:13:48;2.20;;;1.40;;
24650;SDS011;12783;48.824;8.662;2022-11-15T05:16:15;2.13;;;1.67;;
24650;SDS011;12783;48.824;8.662;2022-11-15T05:18:42;1.95;;;1.40;;
24650;SDS011;12783;48.824;8.662;2022-11-15T05:21:10;2.83;;;1.40;;
24650;SDS011;12783;48.824;8.662;2022-11-15T05:23:39;4.30;;;1.50;;
24650;SDS011;12783;48.824;8.662;2022-11-15T05:26:07;3.05;;;1.55;;
24650;SDS011;12783;48.824;8.662;2022-11-15T05:28:35;6.13;;;1.48;;
24650;SDS011;12783;48.824;8.662;2022-11-15T05:31:03;5.03;;;1.60;;
24650;SDS011;12783;48.824;8.662;2022-11-15T05:33:34;2.70;;;1.40;;
24650;SDS011;12783;48.824;8.662;2022-11-15T05:36:03;2.05;;;1.13;;
24650;SDS011;12783;48.824;8.662;2022-11-15T05:38:31;2.65;;;1.60;;
24650;SDS011;12783;48.824;8.662;2022-11-15T05:40:59;1.73;;;1.20;;
24650;SDS011;12783;48.824;8.662;2022-11-15T05:43:26;3.10;;;1.20;;
24650;SDS011;12783;48.824;8.662;2022-11-15T05:45:54;2.40;;;1.50;;
24650;SDS011;12783;48.824;8.662;2022-11-15T05:48:20;4.20;;;1.95;;
24650;SDS011;12783;48.824;8.662;2022-11-15T05:50:47;3.85;;;1.80;;
24650;SDS011;12783;48.824;8.662;2022-11-15T05:53:14;2.25;;;1.30;;
24650;SDS011;12783;48.824;8.662;2022-11-15T05:55:42;1.30;;;1.20;;
24650;SDS011;12783;48.824;8.662;2022-11-15T05:58:09;1.70;;;1.60;;
24650;SDS011;12783;48.824;8.662;2022-11-15T06:00:35;2.45;;;1.20;;
24650;SDS011;12783;48.824;8.662;2022-11-15T06:03:02;1.42;;;1.00;;
24650;SDS011;12783;48.824;8.662;2022-11-15T06:05:29;5.80;;;1.60;;
24650;SDS011;12783;48.824;8.662;2022-11-15T06:07:58;1.92;;;1.10;;
24650;SDS011;12783;48.824;8.662;2022-11-15T06:10:25;1.25;;;1.10;;
24650;SDS011;12783;48.824;8.662;2022-11-15T06:12:56;1.33;;;1.00;;
24650;SDS011;12783;48.824;8.662;2022-11-15T06:15:26;1.07;;;0.90;;
24650;SDS011;12783;48.824;8.662;2022-11-15T06:17:55;1.67;;;1.08;;
24650;SDS011;12783;48.824;8.662;2022-11-15T06:20:27;1.20;;;1.05;;
24650;SDS011;12783;48.824;8.662;2022-11-15T06:23:02;1.08;;;0.98;;
24650;SDS011;12783;48.824;8.662;2022-11-15T06:25:29;1.00;;;0.90;;
24650;SDS011;12783;48.824;8.662;2022-11-15T06:27:57;0.85;;;0.80;;
24650;SDS011;12783;48.824;8.662;2022-11-15T06:30:25;3.17;;;0.98;;
24650;SDS011;12783;48.824;8.662;2022-11-15T06:32:59;1.25;;;0.82;;
24650;SDS011;12783;48.824;8.662;2022-11-15T06:35:27;2.63;;;1.00;;
24650;SDS011;12783;48.824;8.662;2022-11-15T06:37:54;2.00;;;0.90;;
24650;SDS011;12783;48.824;8.662;2022-11-15T06:40:21;0.82;;;0.80;;
24650;SDS011;12783;48.824;8.662;2022-11-15T06:42:48;1.80;;;0.98;;
24650;SDS011;12783;48.824;8.662;2022-11-15T06:45:15;2.25;;;1.10;;
24650;SDS011;12783;48.824;8.662;2022-11-15T06:47:47;1.00;;;0.90;;
24650;SDS011;12783;48.824;8.662;2022-11-15T06:50:14;0.90;;;0.80;;
24650;SDS011;12783;48.824;8.662;2022-11-15T06:52:41;1.83;;;0.90;;
24650;SDS011;12783;48.824;8.662;2022-11-15T06:55:08;1.95;;;1.08;;
24650;SDS011;12783;48.824;8.662;2022-11-15T06:57:35;1.85;;;1.00;;
24650;SDS011;12783;48.824;8.662;2022-11-15T07:00:03;2.17;;;1.08;;
24650;SDS011;12783;48.824;8.662;2022-11-15T07:02:30;0.88;;;0.88;;
24650;SDS011;12783;48.824;8.662;2022-11-15T07:04:57;3.50;;;1.08;;
24650;SDS011;12783;48.824;8.662;2022-11-15T07:07:23;3.13;;;1.00;;
24650;SDS011;12783;48.824;8.662;2022-11-15T07:09:50;1.13;;;1.02;;
24650;SDS011;12783;48.824;8.662;2022-11-15T07:12:17;1.02;;;0.80;;
24650;SDS011;12783;48.824;8.662;2022-11-15T07:14:44;1.88;;;1.13;;
24650;SDS011;12783;48.824;8.662;2022-11-15T07:17:10;1.15;;;0.70;;
24650;SDS011;12783;48.824;8.662;2022-11-15T07:19:37;1.48;;;0.90;;
24650;SDS011;12783;48.824;8.662;2022-11-15T07:22:04;1.17;;;0.93;;
24650;SDS011;12783;48.824;8.662;2022-11-15T07:24:30;2.42;;;1.15;;
24650;SDS011;12783;48.824;8.662;2022-11-15T07:26:57;1.98;;;1.00;;
24650;SDS011;12783;48.824;8.662;2022-11-15T07:29:24;1.30;;;1.10;;
24650;SDS011;12783;48.824;8.662;2022-11-15T07:31:51;2.03;;;1.48;;
24650;SDS011;12783;48.824;8.662;2022-11-15T07:34:17;2.25;;;1.30;;
24650;SDS011;12783;48.824;8.662;2022-11-15T07:36:44;3.00;;;1.30;;
24650;SDS011;12783;48.824;8.662;2022-11-15T07:39:11;1.77;;;1.27;;
24650;SDS011;12783;48.824;8.662;2022-11-15T07:41:38;1.20;;;1.08;;
24650;SDS011;12783;48.824;8.662;2022-11-15T07:44:05;1.27;;;1.17;;
24650;SDS011;12783;48.824;8.662;2022-11-15T07:46:32;2.42;;;1.00;;
24650;SDS011;12783;48.824;8.662;2022-11-15T07:48:58;1.42;;;1.25;;
24650;SDS011;12783;48.824;8.662;2022-11-15T07:51:25;3.53;;;1.13;;
24650;SDS011;12783;48.824;8.662;2022-11-15T07:53:52;2.10;;;1.20;;
24650;SDS011;12783;48.824;8.662;2022-11-15T07:56:18;4.05;;;1.17;;
24650;SDS011;12783;48.824;8.662;2022-11-15T07:58:46;1.17;;;0.93;;
24650;SDS011;12783;48.824;8.662;2022-11-15T08:01:13;1.10;;;0.90;;
24650;SDS011;12783;48.824;8.662;2022-11-15T08:03:40;3.45;;;1.00;;
24650;SDS011;12783;48.824;8.662;2022-11-15T08:06:07;0.85;;;0.85;;
24650;SDS011;12783;48.824;8.662;2022-11-15T08:08:33;4.60;;;1.50;;
24650;SDS011;12783;48.824;8.662;2022-11-15T08:11:00;0.85;;;0.80;;
24650;SDS011;12783;48.824;8.662;2022-11-15T08:13:27;1.30;;;0.95;;
24650;SDS011;12783;48.824;8.662;2022-11-15T08:15:59;1.17;;;0.90;;
24650;SDS011;12783;48.824;8.662;2022-11-15T08:18:27;2.40;;;0.75;;
24650;SDS011;12783;48.824;8.662;2022-11-15T08:20:57;0.93;;;0.82;;
24650;SDS011;12783;48.824;8.662;2022-11-15T08:23:25;3.05;;;0.85;;
24650;SDS011;12783;48.824;8.662;2022-11-15T08:25:52;0.85;;;0.80;;
24650;SDS011;12783;48.824;8.662;2022-11-15T08:28:18;1.45;;;0.80;;
24650;SDS011;12783;48.824;8.662;2022-11-15T08:30:45;2.03;;;0.90;;
24650;SDS011;12783;48.824;8.662;2022-11-15T08:33:12;0.85;;;0.80;;
24650;SDS011;12783;48.824;8.662;2022-11-15T08:35:40;2.13;;;1.13;;
24650;SDS011;12783;48.824;8.662;2022-11-15T08:38:08;1.20;;;1.00;;
24650;SDS011;12783;48.824;8.662;2022-11-15T08:40:35;1.48;;;0.90;;
24650;SDS011;12783;48.824;8.662;2022-11-15T08:43:02;0.82;;;0.82;;
24650;SDS011;12783;48.824;8.662;2022-11-15T08:45:29;1.98;;;0.80;;
24650;SDS011;12783;48.824;8.662;2022-11-15T08:47:56;1.10;;;0.80;;
24650;SDS011;12783;48.824;8.662;2022-11-15T08:50:23;1.17;;;0.80;;
24650;SDS011;12783;48.824;8.662;2022-11-15T08:52:50;1.35;;;0.98;;
24650;SDS011;12783;48.824;8.662;2022-11-15T08:55:17;0.98;;;0.73;;
24650;SDS011;12783;48.824;8.662;2022-11-15T08:57:44;1.40;;;0.73;;
24650;SDS011;12783;48.824;8.662;2022-11-15T09:00:11;1.13;;;0.75;;
24650;SDS011;12783;48.824;8.662;2022-11-15T09:02:39;0.80;;;0.65;;
24650;SDS011;12783;48.824;8.662;2022-11-15T09:05:06;2.03;;;0.70;;
24650;SDS011;12783;48.824;8.662;2022-11-15T09:07:33;1.60;;;1.00;;
24650;SDS011;12783;48.824;8.662;2022-11-15T09:10:00;1.80;;;0.88;;
24650;SDS011;12783;48.824;8.662;2022-11-15T09:12:27;0.50;;;0.50;;
24650;SDS011;12783;48.824;8.662;2022-11-15T09:14:53;1.42;;;0.80;;
24650;SDS011;12783;48.824;8.662;2022-11-15T09:17:21;0.68;;;0.68;;
24650;SDS011;12783;48.824;8.662;2022-11-15T09:19:50;4.05;;;1.13;;
24650;SDS011;12783;48.824;8.662;2022-11-15T09:22:17;2.15;;;0.70;;
24650;SDS011;12783;48.824;8.662;2022-11-15T09:24:44;0.75;;;0.60;;
24650;SDS011;12783;48.824;8.662;2022-11-15T09:27:11;0.60;;;0.60;;
24650;SDS011;12783;48.824;8.662;2022-11-15T09:29:38;1.33;;;0.95;;
24650;SDS011;12783;48.824;8.662;2022-11-15T09:32:05;3.13;;;2.50;;
24650;SDS011;12783;48.824;8.662;2022-11-15T09:34:32;1.83;;;1.40;;
24650;SDS011;12783;48.824;8.662;2022-11-15T09:36:59;1.20;;;1.10;;
24650;SDS011;12783;48.824;8.662;2022-11-15T09:39:26;2.67;;;0.70;;
24650;SDS011;12783;48.824;8.662;2022-11-15T09:45:00;1.42;;;1.15;;
24650;SDS011;12783;48.824;8.662;2022-11-15T09:47:53;1.88;;;0.77;;
24650;SDS011;12783;48.824;8.662;2022-11-15T09:50:38;0.70;;;0.70;;
24650;SDS011;12783;48.824;8.662;2022-11-15T09:53:20;2.05;;;0.95;;
24650;SDS011;12783;48.824;8.662;2022-11-15T09:56:22;1.35;;;0.68;;
24650;SDS011;12783;48.824;8.662;2022-11-15T10:01:39;1.05;;;0.70;;
24650;SDS011;12783;48.824;8.662;2022-11-15T10:04:30;1.23;;;0.70;;
24650;SDS011;12783;48.824;8.662;2022-11-15T10:07:05;1.65;;;0.80;;
24650;SDS011;12783;48.824;8.662;2022-11-15T10:09:53;1.45;;;0.75;;
24650;SDS011;12783;48.824;8.662;2022-11-15T10:12:23;0.73;;;0.63;;
24650;SDS011;12783;48.824;8.662;2022-11-15T10:14:54;1.85;;;0.73;;
24650;SDS011;12783;48.824;8.662;2022-11-15T10:20:46;1.00;;;0.90;;
24650;SDS011;12783;48.824;8.662;2022-11-15T10:23:18;4.50;;;0.93;;
24650;SDS011;12783;48.824;8.662;2022-11-15T10:25:47;1.42;;;0.80;;
24650;SDS011;12783;48.824;8.662;2022-11-15T10:30:57;1.90;;;0.60;;
24650;SDS011;12783;48.824;8.662;2022-11-15T10:41:21;0.60;;;0.60;;
24650;SDS011;12783;48.824;8.662;2022-11-15T10:51:48;1.30;;;0.88;;
24650;SDS011;12783;48.824;8.662;2022-11-15T10:56:58;0.70;;;0.60;;
24650;SDS011;12783;48.824;8.662;2022-11-15T10:59:27;1.45;;;0.70;;
24650;SDS011;12783;48.824;8.662;2022-11-15T11:02:20;0.65;;;0.65;;
24650;SDS011;12783;48.824;8.662;2022-11-15T11:07:56;0.70;;;0.60;;
24650;SDS011;12783;48.824;8.662;2022-11-15T11:10:25;1.73;;;0.77;;
24650;SDS011;12783;48.824;8.662;2022-11-15T11:13:21;0.85;;;0.70;;
24650;SDS011;12783;48.824;8.662;2022-11-15T11:16:36;0.60;;;0.60;;
24650;SDS011;12783;48.824;8.662;2022-11-15T11:21:26;0.55;;;0.50;;
24650;SDS011;12783;48.824;8.662;2022-11-15T11:24:13;0.60;;;0.40;;
24650;SDS011;12783;48.824;8.662;2022-11-15T11:27:18;0.57;;;0.40;;
24650;SDS011;12783;48.824;8.662;2022-11-15T11:35:28;0.95;;;0.50;;
24650;SDS011;12783;48.824;8.662;2022-11-15T11:38:18;0.40;;;0.40;;
24650;SDS011;12783;48.824;8.662;2022-11-15T11:47:00;1.30;;;0.65;;
24650;SDS011;12783;48.824;8.662;2022-11-15T11:49:41;0.30;;;0.30;;
24650;SDS011;12783;48.824;8.662;2022-11-15T11:52:13;1.13;;;0.30;;
24650;SDS011;12783;48.824;8.662;2022-11-15T11:55:05;0.38;;;0.20;;
24650;SDS011;12783;48.824;8.662;2022-11-15T12:00:22;2.08;;;0.22;;
24650;SDS011;12783;48.824;8.662;2022-11-15T12:02:54;1.17;;;0.40;;
24650;SDS011;12783;48.824;8.662;2022-11-15T12:05:40;2.55;;;0.20;;
24650;SDS011;12783;48.824;8.662;2022-11-15T12:08:27;0.60;;;0.30;;
24650;SDS011;12783;48.824;8.662;2022-11-15T12:11:01;0.40;;;0.40;;
24650;SDS011;12783;48.824;8.662;2022-11-15T12:13:33;0.30;;;0.30;;
24650;SDS011;12783;48.824;8.662;2022-11-15T12:16:05;0.80;;;0.30;;
24650;SDS011;12783;48.824;8.662;2022-11-15T12:19:02;0.40;;;0.30;;
24650;SDS011;12783;48.824;8.662;2022-11-15T12:21:39;0.30;;;0.30;;
24650;SDS011;12783;48.824;8.662;2022-11-15T12:24:25;0.43;;;0.40;;
24650;SDS011;12783;48.824;8.662;2022-11-15T12:27:06;0.57;;;0.40;;
24650;SDS011;12783;48.824;8.662;2022-11-15T12:29:53;0.55;;;0.50;;
24650;SDS011;12783;48.824;8.662;2022-11-15T12:34:52;0.40;;;0.40;;
24650;SDS011;12783;48.824;8.662;2022-11-15T12:45:37;1.10;;;0.60;;
24650;SDS011;12783;48.824;8.662;2022-11-15T13:06:44;0.50;;;0.40;;
24650;SDS011;12783;48.824;8.662;2022-11-15T13:12:09;0.88;;;0.63;;
24650;SDS011;12783;48.824;8.662;2022-11-15T13:14:42;0.30;;;0.30;;
24650;SDS011;12783;48.824;8.662;2022-11-15T13:20:26;0.60;;;0.37;;
24650;SDS011;12783;48.824;8.662;2022-11-15T13:33:20;2.25;;;1.23;;
24650;SDS011;12783;48.824;8.662;2022-11-15T13:36:03;2.72;;;1.30;;
24650;SDS011;12783;48.824;8.662;2022-11-15T13:38:35;2.42;;;1.40;;
24650;SDS011;12783;48.824;8.662;2022-11-15T13:41:13;0.68;;;0.68;;
24650;SDS011;12783;48.824;8.662;2022-11-15T13:43:48;1.90;;;1.55;;
24650;SDS011;12783;48.824;8.662;2022-11-15T13:46:18;1.95;;;1.00;;
24650;SDS011;12783;48.824;8.662;2022-11-15T13:48:56;0.82;;;0.60;;
24650;SDS011;12783;48.824;8.662;2022-11-15T13:51:37;1.90;;;0.60;;
24650;SDS011;12783;48.824;8.662;2022-11-15T13:56:52;3.25;;;0.70;;
24650;SDS011;12783;48.824;8.662;2022-11-15T13:59:28;0.90;;;0.63;;
24650;SDS011;12783;48.824;8.662;2022-11-15T14:02:10;2.13;;;0.80;;
24650;SDS011;12783;48.824;8.662;2022-11-15T14:04:42;0.93;;;0.75;;
24650;SDS011;12783;48.824;8.662;2022-11-15T14:07:20;1.55;;;0.68;;
24650;SDS011;12783;48.824;8.662;2022-11-15T14:09:48;1.00;;;0.50;;
24650;SDS011;12783;48.824;8.662;2022-11-15T14:14:59;2.25;;;0.90;;
24650;SDS011;12783;48.824;8.662;2022-11-15T14:17:45;1.63;;;1.00;;
24650;SDS011;12783;48.824;8.662;2022-11-15T14:20:19;0.90;;;0.80;;
24650;SDS011;12783;48.824;8.662;2022-11-15T14:22:54;1.50;;;0.90;;
24650;SDS011;12783;48.824;8.662;2022-11-15T14:25:23;1.27;;;1.10;;
24650;SDS011;12783;48.824;8.662;2022-11-15T14:30:36;1.35;;;1.10;;
24650;SDS011;12783;48.824;8.662;2022-11-15T14:33:12;1.80;;;1.05;;
24650;SDS011;12783;48.824;8.662;2022-11-15T14:35:43;5.07;;;2.05;;
24650;SDS011;12783;48.824;8.662;2022-11-15T14:38:10;3.67;;;1.67;;
24650;SDS011;12783;48.824;8.662;2022-11-15T14:40:37;4.18;;;1.70;;
24650;SDS011;12783;48.824;8.662;2022-11-15T14:43:04;2.15;;;1.60;;
24650;SDS011;12783;48.824;8.662;2022-11-15T14:45:30;2.45;;;1.50;;
24650;SDS011;12783;48.824;8.662;2022-11-15T14:47:57;2.92;;;1.90;;
24650;SDS011;12783;48.824;8.662;2022-11-15T14:50:24;2.50;;;1.63;;
24650;SDS011;12783;48.824;8.662;2022-11-15T14:52:51;2.15;;;1.60;;
24650;SDS011;12783;48.824;8.662;2022-11-15T14:55:22;2.45;;;1.65;;
24650;SDS011;12783;48.824;8.662;2022-11-15T14:57:51;6.75;;;2.80;;
24650;SDS011;12783;48.824;8.662;2022-11-15T15:00:20;4.13;;;2.70;;
24650;SDS011;12783;48.824;8.662;2022-11-15T15:02:48;5.43;;;2.75;;
24650;SDS011;12783;48.824;8.662;2022-11-15T15:07:47;3.17;;;2.08;;
24650;SDS011;12783;48.824;8.662;2022-11-15T15:10:14;2.95;;;1.80;;
24650;SDS011;12783;48.824;8.662;2022-11-15T15:13:02;2.15;;;1.75;;
24650;SDS011;12783;48.824;8.662;2022-11-15T15:15:33;4.60;;;2.10;;
24650;SDS011;12783;48.824;8.662;2022-11-15T15:18:01;5.85;;;2.03;;
24650;SDS011;12783;48.824;8.662;2022-11-15T15:20:33;2.78;;;1.80;;
24650;SDS011;12783;48.824;8.662;2022-11-15T15:23:01;7.50;;;1.98;;
24650;SDS011;12783;48.824;8.662;2022-11-15T15:25:29;4.97;;;2.08;;
24650;SDS011;12783;48.824;8.662;2022-11-15T15:27:58;3.10;;;2.10;;
24650;SDS011;12783;48.824;8.662;2022-11-15T15:30:26;5.10;;;2.20;;
24650;SDS011;12783;48.824;8.662;2022-11-15T15:32:54;6.13;;;2.40;;
24650;SDS011;12783;48.824;8.662;2022-11-15T15:35:21;3.85;;;2.58;;
24650;SDS011;12783;48.824;8.662;2022-11-15T15:37:48;3.17;;;2.15;;
24650;SDS011;12783;48.824;8.662;2022-11-15T15:40:16;6.85;;;2.22;;
24650;SDS011;12783;48.824;8.662;2022-11-15T15:42:48;3.40;;;2.38;;
24650;SDS011;12783;48.824;8.662;2022-11-15T15:45:15;4.43;;;2.50;;
24650;SDS011;12783;48.824;8.662;2022-11-15T15:47:43;4.68;;;2.60;;
24650;SDS011;12783;48.824;8.662;2022-11-15T15:50:17;5.47;;;2.25;;
24650;SDS011;12783;48.824;8.662;2022-11-15T15:52:51;4.75;;;2.70;;
24650;SDS011;12783;48.824;8.662;2022-11-15T15:55:19;4.32;;;2.88;;
24650;SDS011;12783;48.824;8.662;2022-11-15T15:57:46;4.05;;;2.20;;
24650;SDS011;12783;48.824;8.662;2022-11-15T16:00:13;5.40;;;2.50;;
24650;SDS011;12783;48.824;8.662;2022-11-15T16:02:41;3.40;;;1.70;;
24650;SDS011;12783;48.824;8.662;2022-11-15T16:05:08;2.92;;;1.75;;
24650;SDS011;12783;48.824;8.662;2022-11-15T16:07:35;2.42;;;1.80;;
24650;SDS011;12783;48.824;8.662;2022-11-15T16:10:09;3.25;;;1.60;;
24650;SDS011;12783;48.824;8.662;2022-11-15T16:12:40;2.22;;;1.67;;
24650;SDS011;12783;48.824;8.662;2022-11-15T16:15:07;1.88;;;1.65;;
24650;SDS011;12783;48.824;8.662;2022-11-15T16:17:35;4.75;;;1.90;;
24650;SDS011;12783;48.824;8.662;2022-11-15T16:20:04;2.50;;;1.98;;
24650;SDS011;12783;48.824;8.662;2022-11-15T16:22:31;5.03;;;1.50;;
24650;SDS011;12783;48.824;8.662;2022-11-15T16:24:57;4.75;;;1.98;;
24650;SDS011;12783;48.824;8.662;2022-11-15T16:27:24;3.05;;;2.08;;
24650;SDS011;12783;48.824;8.662;2022-11-15T16:29:51;3.08;;;1.73;;
24650;SDS011;12783;48.824;8.662;2022-11-15T16:32:17;3.35;;;2.20;;
24650;SDS011;12783;48.824;8.662;2022-11-15T16:34:44;3.28;;;1.73;;
24650;SDS011;12783;48.824;8.662;2022-11-15T16:37:23;2.95;;;1.60;;
24650;SDS011;12783;48.824;8.662;2022-11-15T16:39:50;3.97;;;1.80;;
24650;SDS011;12783;48.824;8.662;2022-11-15T16:42:22;2.70;;;1.95;;
24650;SDS011;12783;48.824;8.662;2022-11-15T16:44:49;3.45;;;2.25;;
24650;SDS011;12783;48.824;8.662;2022-11-15T16:47:18;5.20;;;3.00;;
24650;SDS011;12783;48.824;8.662;2022-11-15T16:49:46;3.80;;;2.10;;
24650;SDS011;12783;48.824;8.662;2022-11-15T16:52:12;2.75;;;1.80;;
24650;SDS011;12783;48.824;8.662;2022-11-15T16:54:46;4.95;;;2.22;;
24650;SDS011;12783;48.824;8.662;2022-11-15T16:57:13;4.13;;;1.98;;
24650;SDS011;12783;48.824;8.662;2022-11-15T16:59:39;3.05;;;1.60;;
24650;SDS011;12783;48.824;8.662;2022-11-15T17:02:10;3.83;;;1.83;;
24650;SDS011;12783;48.824;8.662;2022-11-15T17:04:38;7.45;;;2.10;;
24650;SDS011;12783;48.824;8.662;2022-11-15T17:07:04;5.70;;;2.10;;
24650;SDS011;12783;48.824;8.662;2022-11-15T17:09:32;5.68;;;1.88;;
24650;SDS011;12783;48.824;8.662;2022-11-15T17:11:59;2.83;;;1.88;;
24650;SDS011;12783;48.824;8.662;2022-11-15T17:14:26;2.70;;;1.75;;
24650;SDS011;12783;48.824;8.662;2022-11-15T17:16:52;3.10;;;1.77;;
24650;SDS011;12783;48.824;8.662;2022-11-15T17:19:22;4.22;;;1.95;;
24650;SDS011;12783;48.824;8.662;2022-11-15T17:21:48;2.22;;;1.55;;
24650;SDS011;12783;48.824;8.662;2022-11-15T17:24:15;3.33;;;1.77;;